AirNav   ATP
 
 1121 users online  

M90 William Robert Johnston Municipal Airport
Mendota, California, USA

GOING TO MENDOTA?


FAA INFORMATION EFFECTIVE 06 DECEMBER 2018

Location

FAA Identifier: M90
Lat/Long: 36-45-31.0000N / 120-22-17.0000W
36-45.516667N / 120-22.283333W
36.7586111 / -120.3713889
(estimated)
Elevation: 162 ft. / 49 m (estimated)
Variation: 15E (1985)
Time zone: UTC -8 (UTC -7 during Daylight Saving Time)
Zip code: 93640

Airport Operations

Airport use: Open to the public
Activation date: 08/1957
Control tower: no
ARTCC: OAKLAND CENTER
FSS: RANCHO MURIETA FLIGHT SERVICE STATION
NOTAMs facility: RIU (NOTAM-D service available)
Attendance: UNATNDD
Wind indicator: yes
Segmented circle: yes

Airport Communications

CTAF: 122.9
WX ASOS at MAE (18 nm NE): 134.725 (559-674-1781)

Nearby radio navigation aids

VOR radial/distance  VOR name  Freq  Var
PXNr066/19.8PANOCHE VORTAC112.6016E
HYPr162/27.7EL NIDO VOR/DME114.2015E
CZQr239/27.8CLOVIS VORTAC112.9015E
ROMr005/(39.7)PRIEST VOR110.0016E

Airport Services

Parking: tiedowns

Runway Information

Runway 15/33

Dimensions: 3499 x 50 ft. / 1066 x 15 m
Surface: asphalt, in fair condition
Weight bearing capacity: 
Single wheel: 12.5
RUNWAY 15  RUNWAY 33
Latitude: 36-45.798333N36-45.251500N
Longitude: 120-22.404667W120-22.177167W
Gradient: 0.1%0.1%
Traffic pattern: leftright
Displaced threshold: no777 ft.
Markings: basic, in fair conditionbasic, in fair condition
Runway end identifier lights: nono
Obstructions: none17 ft. bldg, 423 ft. from runway, 190 ft. left of centerline, 13:1 slope to clear
APCH RATIO TO DSPLCD THR 50:1.

Airport Ownership and Management from official FAA records

Ownership: Publicly-owned
Owner: CITY OF MENDOTA
643 QUINCE ST
MENDOTA, CA 93640-2334
Phone 559-655-4298
Manager: JENNIFER LEKUMBERRY
643 QUINCE ST
MENDOTA, CA 93640-2334
Phone (559) 630-2849
CITY MANAGER X 106.

Airport Operational Statistics

Aircraft operations: avg 77/week *
50% transient general aviation
50% local general aviation
* for 12-month period ending 11 October 2017

Additional Remarks

ARPT CLSD NIGHTS.
FOR CD CTC NORCAL APCH AT 916-361-0516.
PARL TWY ROUGH/UNEVEN SFC; EXTSV ASPH RPR AND PATCHING.

Instrument Procedures

There are no published instrument procedures at M90.

Some nearby airports with instrument procedures:

F34 - Firebaugh Airport (8 nm NW)
KMAE - Madera Municipal Airport (18 nm NE)
KFCH - Fresno Chandler Executive Airport (27 nm E)
KLSN - Los Banos Municipal Airport (30 nm NW)
KFAT - Fresno Yosemite International Airport (31 nm E)
 
Loc | Ops | Rwys | IFR | FBO | Links
Com | Nav | Svcs | Stats | Notes


 
Area around M90 (William Robert Johnston Municipal Airport)
 
Road maps at: MapQuest Bing Google
 
Aerial photo
WARNING: Photo may not be current or correct
Aerial photo of M90 (William Robert Johnston Municipal Airport)
Do you have a better or more recent aerial photo of William Robert Johnston Municipal Airport that you would like to share? If so, please send us your photo.

 
Sectional chart

 
Airport distance calculator
Flying to William Robert Johnston Municipal Airport? Find the distance to fly.

From to M90

Sunrise and sunset
Times for 10-Dec-2018
 Local
(UTC-8)
 Zulu
(UTC)
Morning civil twilight06:3614:36
Sunrise07:0415:04
Sunset16:4400:44
Evening civil twilight17:1301:13

Current date and time
Zulu (UTC)  10-Dec-2018 23:13:53
Local (UTC-8)  10-Dec-2018 15:13:53
 
METAR
KMAE 
18nm NE 
102253Z AUTO 30003KT 4SM HZ OVC015 11/06 A3017 RMK AO2 SLP216 T01110061
KFCH 
27nm E 
102255Z AUTO 00000KT 3SM BR OVC012 09/08 A3017 RMK A01
KFAT 
32nm E 
102253Z 05003KT 3SM HZ OVC012 09/07 A3017 RMK AO2 TWR VIS 4 SLP218 T00940067
KMCE 
32nm N 
102253Z AUTO 35005KT 4SM HZ OVC017 10/06 A3016 RMK AO2 SLP212 T01000061
KNLC 
33nm SE 
102256Z 35009KT 3SM HZ OVC012 09/07 A3017 RMK AO2 SFC VIS 4 SLP218 RH/83 T00940067 $
TAF
KFAT 
32nm E 
101726Z 1018/1118 VRB03KT 3SM BR OVC010 TEMPO 1018/1021 2SM BR
KMCE 
32nm N 
101726Z 1018/1118 32005KT 3SM BR OVC010 TEMPO 1018/1021 2SM BR
KNLC 
33nm SE 
1015/1115 VRB06KT 6000 BR SCT005 SCT150 BKN250 QNH3017INS TEMPO 1015/1018 VRB06KT 0800 FG VV002 FM102100 33009KT 8000 HZ SCT008 SCT150 BKN250 QNH3016INS TEMPO 1022/1104 VRB06KT 1600 BR OVC008 FM110600 VRB06KT 1600 BR FEW004 BKN015 QNH3011INS TEMPO 1109/1115 0400 FG VV002 T13/1100Z T05/1113Z FS30125
KMER 
39nm N 
101726Z 1018/1118 32005KT 3SM BR OVC010 TEMPO 1018/1021 2SM BR
NOTAMs
Click for the latest NOTAMs
NOTAMs are issued by the DoD/FAA and will open in a separate window not controlled by AirNav.

 

 
 

Would you like to see your business listed on this page?

 If your business provides an interesting product or service to pilots, flight crews, aircraft, or users of the William Robert Johnston Municipal Airport, you should consider listing it here.  To start the listing process, click on the button below
 
Add a business
 

Other Pages about William Robert Johnston Municipal Airport

Update a link
 
Copyright © AirNav, LLC. All rights reserved. Privacy Policy  Contact